createdAt,value
2022-11-05T00:00:21.000Z,5397.0
2022-11-05T00:01:20.000Z,5243.0
2022-11-05T00:02:20.000Z,4961.0
2022-11-05T00:03:21.000Z,4832.0
2022-11-05T00:04:20.000Z,4772.0
2022-11-05T00:05:20.000Z,4689.0
2022-11-05T00:06:20.000Z,4635.0
2022-11-05T00:07:20.000Z,4580.0
2022-11-05T00:08:21.000Z,4832.0
2022-11-05T00:09:20.000Z,4795.0
2022-11-05T00:10:20.000Z,5082.0
2022-11-05T00:11:21.000Z,5150.0
2022-11-05T00:12:20.000Z,4835.0
2022-11-05T00:13:21.000Z,4354.0
2022-11-05T00:14:20.000Z,4418.0
2022-11-05T00:15:20.000Z,4311.0
2022-11-05T00:16:21.000Z,4133.0
2022-11-05T00:17:20.000Z,3842.0
2022-11-05T00:18:20.000Z,3841.0
2022-11-05T00:19:21.000Z,3967.0
2022-11-05T00:20:20.000Z,3875.0
2022-11-05T00:21:20.000Z,3910.0
2022-11-05T00:22:20.000Z,4091.0
2022-11-05T00:23:20.000Z,4283.0
2022-11-05T00:24:21.000Z,4313.0
2022-11-05T00:25:20.000Z,4293.0
2022-11-05T00:26:20.000Z,4436.0
2022-11-05T00:27:21.000Z,4637.0
2022-11-05T00:28:20.000Z,4952.0
2022-11-05T00:29:20.000Z,4888.0
2022-11-05T00:30:20.000Z,4950.0
2022-11-05T00:31:20.000Z,5274.0
2022-11-05T00:32:21.000Z,5332.0
2022-11-05T00:33:20.000Z,5156.0
2022-11-05T00:34:20.000Z,4893.0
2022-11-05T00:35:21.000Z,5092.0
2022-11-05T00:36:20.000Z,5037.0
2022-11-05T00:37:21.000Z,4915.0
2022-11-05T00:38:20.000Z,4883.0
2022-11-05T00:39:20.000Z,5088.0
2022-11-05T00:40:21.000Z,4827.0
2022-11-05T00:41:20.000Z,4905.0
2022-11-05T00:42:20.000Z,4590.0
2022-11-05T00:43:20.000Z,4421.0
2022-11-05T00:44:20.000Z,4491.0
2022-11-05T00:45:21.000Z,3951.0
2022-11-05T00:46:20.000Z,3835.0
2022-11-05T00:47:20.000Z,3868.0
2022-11-05T00:48:21.000Z,3671.0
2022-11-05T00:49:20.000Z,3424.0
2022-11-05T00:50:21.000Z,3464.0
2022-11-05T00:51:20.000Z,3744.0
2022-11-05T00:52:20.000Z,3916.0
2022-11-05T00:53:21.000Z,4310.0
2022-11-05T00:54:20.000Z,4588.0
2022-11-05T00:55:20.000Z,4393.0
2022-11-05T00:56:20.000Z,4094.0
2022-11-05T00:57:20.000Z,4118.0
2022-11-05T00:58:21.000Z,3916.0
2022-11-05T00:59:20.000Z,3641.0
2022-11-05T01:00:20.000Z,3548.0
2022-11-05T01:01:21.000Z,3325.0
2022-11-05T01:02:20.000Z,3393.0
2022-11-05T01:03:21.000Z,3772.0
2022-11-05T01:04:20.000Z,4234.0
2022-11-05T01:05:20.000Z,4440.0
2022-11-05T01:06:21.000Z,4784.0
2022-11-05T01:07:20.000Z,5216.0
2022-11-05T01:08:20.000Z,6164.0
2022-11-05T01:09:20.000Z,6244.0
2022-11-05T01:10:20.000Z,6522.0
2022-11-05T01:11:21.000Z,6669.0
2022-11-05T01:12:20.000Z,7016.0
2022-11-05T01:13:20.000Z,7526.0
2022-11-05T01:14:21.000Z,7732.0
2022-11-05T01:15:20.000Z,8036.0
2022-11-05T01:16:21.000Z,7901.0
2022-11-05T01:17:21.000Z,7869.0
2022-11-05T01:18:20.000Z,7483.0
2022-11-05T01:19:20.000Z,8209.0
2022-11-05T01:20:20.000Z,8346.0
2022-11-05T01:21:20.000Z,8680.0
2022-11-05T01:22:21.000Z,8571.0
2022-11-05T01:23:20.000Z,8848.0
2022-11-05T01:24:20.000Z,8885.0
2022-11-05T01:25:21.000Z,9382.0
2022-11-05T01:26:20.000Z,9326.0
2022-11-05T01:27:21.000Z,8892.0
2022-11-05T01:28:20.000Z,10162.0
2022-11-05T01:29:20.000Z,10775.0
2022-11-05T01:30:21.000Z,11000.0
2022-11-05T01:31:20.000Z,10957.0
2022-11-05T01:32:20.000Z,10766.0
2022-11-05T01:33:20.000Z,11778.0
2022-11-05T01:34:20.000Z,11386.0
2022-11-05T01:35:21.000Z,12179.0
2022-11-05T01:36:20.000Z,12829.0
2022-11-05T01:37:20.000Z,12475.0
2022-11-05T01:38:21.000Z,11655.0
2022-11-05T01:39:20.000Z,11439.0
2022-11-05T01:40:20.000Z,11713.0
2022-11-05T01:41:20.000Z,11935.0
2022-11-05T01:42:20.000Z,12881.0
2022-11-05T01:43:21.000Z,13665.0
2022-11-05T01:44:20.000Z,14084.0
2022-11-05T01:45:20.000Z,13102.0
2022-11-05T01:46:21.000Z,12071.0
2022-11-05T01:47:20.000Z,12154.0
2022-11-05T01:48:21.000Z,12534.0
2022-11-05T01:49:20.000Z,12411.0
2022-11-05T01:50:20.000Z,11841.0
2022-11-05T01:51:21.000Z,12171.0
2022-11-05T01:52:20.000Z,12119.0
2022-11-05T01:53:21.000Z,11706.0
2022-11-05T01:54:20.000Z,12228.0
2022-11-05T01:55:20.000Z,11495.0
2022-11-05T01:56:21.000Z,11892.0
2022-11-05T01:57:20.000Z,11409.0
2022-11-05T01:58:20.000Z,11708.0
2022-11-05T01:59:20.000Z,10885.0
2022-11-05T02:00:20.000Z,11228.0
2022-11-05T02:01:21.000Z,11231.0
2022-11-05T02:02:20.000Z,11775.0
2022-11-05T02:03:20.000Z,11201.0
2022-11-05T02:04:21.000Z,11618.0
2022-11-05T02:05:20.000Z,10948.0
2022-11-05T02:06:20.000Z,10846.0
2022-11-05T02:07:20.000Z,10557.0
2022-11-05T02:08:20.000Z,10163.0
2022-11-05T02:09:21.000Z,9300.0
2022-11-05T02:10:20.000Z,8907.0
2022-11-05T02:11:20.000Z,8650.0
2022-11-05T02:12:21.000Z,9062.0
2022-11-05T02:13:20.000Z,8943.0
2022-11-05T02:14:21.000Z,9469.0
2022-11-05T02:15:20.000Z,9281.0
2022-11-05T02:16:20.000Z,10191.0
2022-11-05T02:17:21.000Z,10211.0
2022-11-05T02:18:20.000Z,9369.0
2022-11-05T02:19:20.000Z,9471.0
2022-11-05T02:20:21.000Z,10503.0
2022-11-05T02:21:20.000Z,10516.0
2022-11-05T02:22:20.000Z,10284.0
2022-11-05T02:23:21.000Z,9435.0
2022-11-05T02:24:20.000Z,9743.0
2022-11-05T02:25:21.000Z,10211.0
2022-11-05T02:26:20.000Z,10295.0
2022-11-05T02:27:20.000Z,9446.0
2022-11-05T02:28:21.000Z,9606.0
2022-11-05T02:29:20.000Z,9737.0
2022-11-05T02:30:20.000Z,10582.0
2022-11-05T02:31:20.000Z,11186.0
2022-11-05T02:32:20.000Z,10067.0
2022-11-05T02:33:21.000Z,8914.0
2022-11-05T02:34:20.000Z,8997.0
2022-11-05T02:35:20.000Z,8856.0
2022-11-05T02:36:21.000Z,8806.0
2022-11-05T02:37:20.000Z,8999.0
2022-11-05T02:38:21.000Z,8475.0
2022-11-05T02:39:20.000Z,7951.0
2022-11-05T02:40:20.000Z,7643.0
2022-11-05T02:41:21.000Z,7249.0
2022-11-05T02:42:20.000Z,7623.0
2022-11-05T02:43:20.000Z,7739.0
2022-11-05T02:44:20.000Z,8376.0
2022-11-05T02:45:20.000Z,8109.0
2022-11-05T02:46:21.000Z,8426.0
2022-11-05T02:47:20.000Z,7694.0
2022-11-05T02:48:20.000Z,7185.0
2022-11-05T02:49:21.000Z,7594.0
2022-11-05T02:50:20.000Z,7899.0
2022-11-05T02:51:20.000Z,8468.0
2022-11-05T02:52:20.000Z,8543.0
2022-11-05T02:53:20.000Z,9114.0
2022-11-05T02:54:21.000Z,9426.0
2022-11-05T02:55:20.000Z,8830.0
2022-11-05T02:56:20.000Z,9401.0
2022-11-05T02:57:21.000Z,11113.0
2022-11-05T02:58:20.000Z,10730.0
2022-11-05T02:59:21.000Z,11028.0
2022-11-05T03:00:20.000Z,11373.0
2022-11-05T03:01:20.000Z,11801.0
2022-11-05T03:02:21.000Z,11505.0
2022-11-05T03:03:20.000Z,13043.0
2022-11-05T03:04:21.000Z,12671.0
2022-11-05T03:05:20.000Z,13008.0
2022-11-05T03:06:20.000Z,12819.0
2022-11-05T03:07:21.000Z,12915.0
2022-11-05T03:08:20.000Z,13662.0
2022-11-05T03:09:20.000Z,15017.0
2022-11-05T03:10:20.000Z,13513.0
2022-11-05T03:11:20.000Z,13305.0
2022-11-05T03:12:21.000Z,13857.0
2022-11-05T03:13:20.000Z,12700.0
2022-11-05T03:14:20.000Z,12207.0
2022-11-05T03:15:21.000Z,12478.0
2022-11-05T03:16:20.000Z,13120.0
2022-11-05T03:17:20.000Z,13095.0
2022-11-05T03:18:21.000Z,13578.0
2022-11-05T03:19:20.000Z,13274.0
2022-11-05T03:20:20.000Z,13895.0
2022-11-05T03:21:21.000Z,13846.0
2022-11-05T03:22:20.000Z,14286.0
2022-11-05T03:23:21.000Z,14541.0
2022-11-05T03:24:20.000Z,14661.0
2022-11-05T03:25:20.000Z,14696.0
2022-11-05T03:26:21.000Z,13620.0
2022-11-05T03:27:20.000Z,15368.0
2022-11-05T03:28:20.000Z,15544.0
2022-11-05T03:29:20.000Z,13822.0
2022-11-05T03:30:20.000Z,15332.0
2022-11-05T03:31:21.000Z,13698.0
2022-11-05T03:32:20.000Z,12186.0
2022-11-05T03:33:20.000Z,13356.0
2022-11-05T03:34:21.000Z,13955.0
2022-11-05T03:35:20.000Z,14057.0
2022-11-05T03:36:21.000Z,14513.0
2022-11-05T03:37:20.000Z,14689.0
2022-11-05T03:38:20.000Z,16000.0
2022-11-05T03:39:21.000Z,16000.0
2022-11-05T03:40:20.000Z,16000.0
2022-11-05T03:41:20.000Z,16000.0
2022-11-05T03:42:20.000Z,16000.0
2022-11-05T03:43:20.000Z,16000.0
2022-11-05T03:44:21.000Z,16000.0
2022-11-05T03:45:20.000Z,16000.0
2022-11-05T03:46:20.000Z,16000.0
2022-11-05T03:47:21.000Z,16000.0
2022-11-05T03:48:20.000Z,16000.0
2022-11-05T03:49:21.000Z,16000.0
2022-11-05T03:50:20.000Z,16000.0
2022-11-05T03:51:20.000Z,16000.0
2022-11-05T03:52:21.000Z,16000.0
2022-11-05T03:53:20.000Z,16000.0
2022-11-05T03:54:20.000Z,16000.0
2022-11-05T03:55:20.000Z,16000.0
2022-11-05T03:56:20.000Z,16000.0
2022-11-05T03:57:21.000Z,16000.0
2022-11-05T03:58:20.000Z,16000.0
2022-11-05T03:59:20.000Z,16000.0
2022-11-05T04:00:21.000Z,16000.0
2022-11-05T04:01:20.000Z,16000.0
2022-11-05T04:02:21.000Z,16000.0
2022-11-05T04:03:20.000Z,16000.0
2022-11-05T04:04:20.000Z,16000.0
2022-11-05T04:05:21.000Z,16000.0
2022-11-05T04:06:20.000Z,16000.0
2022-11-05T04:07:20.000Z,16000.0
2022-11-05T04:08:20.000Z,16000.0
2022-11-05T04:09:20.000Z,16000.0
2022-11-05T04:10:21.000Z,16000.0
2022-11-05T04:11:20.000Z,16000.0
2022-11-05T04:12:20.000Z,16000.0
2022-11-05T04:13:21.000Z,16000.0
2022-11-05T04:14:20.000Z,16000.0
2022-11-05T04:15:21.000Z,16000.0
2022-11-05T04:16:20.000Z,16000.0
2022-11-05T04:17:20.000Z,16000.0
2022-11-05T04:18:21.000Z,16000.0
2022-11-05T04:19:20.000Z,16000.0
2022-11-05T04:20:20.000Z,16000.0
2022-11-05T04:21:21.000Z,16000.0
2022-11-05T04:22:20.000Z,16000.0
2022-11-05T04:23:20.000Z,16000.0
2022-11-05T04:24:21.000Z,16000.0
2022-11-05T04:25:20.000Z,16000.0
2022-11-05T04:26:21.000Z,16000.0
2022-11-05T04:27:20.000Z,16000.0
2022-11-05T04:28:20.000Z,16000.0
2022-11-05T04:29:21.000Z,16000.0
2022-11-05T04:30:20.000Z,16000.0
2022-11-05T04:31:20.000Z,16000.0
2022-11-05T04:32:20.000Z,16000.0
2022-11-05T04:33:20.000Z,16000.0
2022-11-05T04:34:21.000Z,16000.0
2022-11-05T04:35:20.000Z,16000.0
2022-11-05T04:36:20.000Z,16000.0
2022-11-05T04:37:21.000Z,16000.0
2022-11-05T04:38:20.000Z,16000.0
2022-11-05T04:39:20.000Z,16000.0
2022-11-05T04:40:20.000Z,16000.0
2022-11-05T04:41:20.000Z,16000.0
2022-11-05T04:42:21.000Z,16000.0
2022-11-05T04:43:20.000Z,16000.0
2022-11-05T04:44:20.000Z,16000.0
2022-11-05T04:45:21.000Z,16000.0
2022-11-05T04:46:20.000Z,16000.0
2022-11-05T04:47:21.000Z,16000.0
2022-11-05T04:48:20.000Z,16000.0
2022-11-05T04:49:20.000Z,16000.0
2022-11-05T04:50:21.000Z,16000.0
2022-11-05T04:51:20.000Z,16000.0
2022-11-05T04:52:21.000Z,16000.0
2022-11-05T04:53:20.000Z,16000.0
2022-11-05T04:54:20.000Z,16000.0
2022-11-05T04:55:21.000Z,16000.0
2022-11-05T04:56:20.000Z,16000.0
2022-11-05T04:57:20.000Z,16000.0
2022-11-05T04:58:20.000Z,16000.0
2022-11-05T04:59:20.000Z,16000.0
2022-11-05T05:00:21.000Z,16000.0
2022-11-05T05:01:20.000Z,16000.0
2022-11-05T05:02:20.000Z,16000.0
2022-11-05T05:03:21.000Z,16000.0
2022-11-05T05:04:20.000Z,16000.0
2022-11-05T05:05:20.000Z,16000.0
2022-11-05T05:06:20.000Z,16000.0
2022-11-05T05:07:20.000Z,16000.0
2022-11-05T05:08:21.000Z,16000.0
2022-11-05T05:09:20.000Z,16000.0
2022-11-05T05:10:20.000Z,16000.0
2022-11-05T05:11:21.000Z,16000.0
2022-11-05T05:12:20.000Z,16000.0
2022-11-05T05:13:21.000Z,16000.0
2022-11-05T05:14:20.000Z,16000.0
2022-11-05T05:15:20.000Z,16000.0
2022-11-05T05:16:21.000Z,16000.0
2022-11-05T05:17:20.000Z,16000.0
2022-11-05T05:18:20.000Z,16000.0
2022-11-05T05:19:21.000Z,16000.0
2022-11-05T05:20:20.000Z,16000.0
2022-11-05T05:21:20.000Z,16000.0
2022-11-05T05:22:20.000Z,16000.0
2022-11-05T05:23:20.000Z,16000.0
2022-11-05T05:24:21.000Z,16000.0
2022-11-05T05:25:20.000Z,16000.0
2022-11-05T05:26:20.000Z,16000.0
2022-11-05T05:27:21.000Z,16000.0
2022-11-05T05:28:20.000Z,16000.0
2022-11-05T05:29:20.000Z,16000.0
2022-11-05T05:30:20.000Z,16000.0
2022-11-05T05:31:20.000Z,16000.0
2022-11-05T05:32:21.000Z,16000.0
2022-11-05T05:33:20.000Z,16000.0
2022-11-05T05:34:20.000Z,16000.0
2022-11-05T05:35:20.000Z,16000.0
2022-11-05T05:36:20.000Z,16000.0
2022-11-05T05:37:21.000Z,16000.0
2022-11-05T05:38:20.000Z,16000.0
2022-11-05T05:39:20.000Z,16000.0
2022-11-05T05:40:21.000Z,16000.0
2022-11-05T05:41:20.000Z,16000.0
2022-11-05T05:42:20.000Z,16000.0
2022-11-05T05:43:20.000Z,16000.0
2022-11-05T05:44:20.000Z,16000.0
2022-11-05T05:45:21.000Z,16000.0
2022-11-05T05:46:20.000Z,16000.0
2022-11-05T05:47:20.000Z,16000.0
2022-11-05T05:48:21.000Z,16000.0
2022-11-05T05:49:20.000Z,16000.0
2022-11-05T05:50:21.000Z,16000.0
2022-11-05T05:51:20.000Z,16000.0
2022-11-05T05:52:20.000Z,16000.0
2022-11-05T05:53:21.000Z,16000.0
2022-11-05T05:54:20.000Z,16000.0
2022-11-05T05:55:20.000Z,16000.0
2022-11-05T05:56:20.000Z,16000.0
2022-11-05T05:57:20.000Z,16000.0
2022-11-05T05:58:21.000Z,16000.0
2022-11-05T05:59:20.000Z,16000.0
2022-11-05T06:00:20.000Z,16000.0
2022-11-05T06:01:20.000Z,16000.0
2022-11-05T06:02:20.000Z,16000.0
2022-11-05T06:03:21.000Z,16000.0
2022-11-05T06:04:20.000Z,16000.0
2022-11-05T06:05:20.000Z,16000.0
2022-11-05T06:06:21.000Z,16000.0
2022-11-05T06:07:20.000Z,16000.0
2022-11-05T06:08:20.000Z,16000.0
2022-11-05T06:09:20.000Z,16000.0
2022-11-05T06:10:20.000Z,16000.0
2022-11-05T06:11:21.000Z,16000.0
2022-11-05T06:12:20.000Z,16000.0
2022-11-05T06:13:20.000Z,16000.0
2022-11-05T06:14:21.000Z,16000.0
2022-11-05T06:15:20.000Z,16000.0
2022-11-05T06:16:21.000Z,16000.0
2022-11-05T06:17:21.000Z,16000.0
2022-11-05T06:18:20.000Z,16000.0
2022-11-05T06:19:20.000Z,16000.0
2022-11-05T06:20:20.000Z,16000.0
2022-11-05T06:21:20.000Z,16000.0
2022-11-05T06:22:21.000Z,16000.0
2022-11-05T06:23:20.000Z,16000.0
2022-11-05T06:24:20.000Z,16000.0
2022-11-05T06:25:21.000Z,16000.0
2022-11-05T06:26:20.000Z,16000.0
2022-11-05T06:27:21.000Z,16000.0
2022-11-05T06:28:20.000Z,16000.0
2022-11-05T06:29:20.000Z,16000.0
2022-11-05T06:30:21.000Z,16000.0
2022-11-05T06:31:20.000Z,16000.0
2022-11-05T06:32:20.000Z,16000.0
2022-11-05T06:33:20.000Z,16000.0
2022-11-05T06:34:20.000Z,16000.0
2022-11-05T06:35:21.000Z,16000.0
2022-11-05T06:36:20.000Z,16000.0
2022-11-05T06:37:20.000Z,16000.0
2022-11-05T06:38:20.000Z,16000.0
2022-11-05T06:39:20.000Z,16000.0
2022-11-05T06:40:21.000Z,16000.0
2022-11-05T06:41:20.000Z,16000.0
2022-11-05T06:42:20.000Z,16000.0
2022-11-05T06:43:21.000Z,16000.0
2022-11-05T06:44:20.000Z,16000.0
2022-11-05T06:45:20.000Z,16000.0
2022-11-05T06:46:20.000Z,16000.0
2022-11-05T06:47:20.000Z,16000.0
2022-11-05T06:48:21.000Z,16000.0
2022-11-05T06:49:20.000Z,16000.0
2022-11-05T06:50:20.000Z,16000.0
2022-11-05T06:51:21.000Z,16000.0
2022-11-05T06:52:20.000Z,16000.0
2022-11-05T06:53:21.000Z,16000.0
2022-11-05T06:54:20.000Z,16000.0
2022-11-05T06:55:20.000Z,16000.0
2022-11-05T06:56:21.000Z,16000.0
2022-11-05T06:57:20.000Z,16000.0
2022-11-05T06:58:20.000Z,16000.0
2022-11-05T06:59:20.000Z,16000.0
2022-11-05T07:00:20.000Z,16000.0
2022-11-05T07:01:21.000Z,16000.0
2022-11-05T07:02:20.000Z,16000.0
2022-11-05T07:03:20.000Z,16000.0
2022-11-05T07:04:21.000Z,16000.0
2022-11-05T07:05:20.000Z,16000.0
2022-11-05T07:06:21.000Z,16000.0
2022-11-05T07:07:20.000Z,16000.0
2022-11-05T07:08:20.000Z,16000.0
2022-11-05T07:09:21.000Z,16000.0
2022-11-05T07:10:20.000Z,16000.0
2022-11-05T07:11:20.000Z,16000.0
2022-11-05T07:12:20.000Z,16000.0
2022-11-05T07:13:20.000Z,16000.0
2022-11-05T07:14:21.000Z,16000.0
2022-11-05T07:15:20.000Z,16000.0
2022-11-05T07:16:20.000Z,16000.0
2022-11-05T07:17:21.000Z,16000.0
2022-11-05T07:18:20.000Z,16000.0
2022-11-05T07:19:20.000Z,16000.0
2022-11-05T07:20:21.000Z,16000.0
2022-11-05T07:21:20.000Z,16000.0
2022-11-05T07:22:20.000Z,16000.0
2022-11-05T07:23:20.000Z,16000.0
2022-11-05T07:24:20.000Z,16000.0
2022-11-05T07:25:21.000Z,16000.0
2022-11-05T07:26:20.000Z,16000.0
2022-11-05T07:27:20.000Z,16000.0
2022-11-05T07:28:21.000Z,16000.0
2022-11-05T07:29:20.000Z,16000.0
2022-11-05T07:30:20.000Z,16000.0
2022-11-05T07:31:20.000Z,16000.0
2022-11-05T07:32:20.000Z,16000.0
2022-11-05T07:33:21.000Z,16000.0
2022-11-05T07:34:20.000Z,16000.0
2022-11-05T07:35:20.000Z,16000.0
2022-11-05T07:36:20.000Z,16000.0
2022-11-05T07:37:20.000Z,16000.0
2022-11-05T07:38:21.000Z,16000.0
2022-11-05T07:39:20.000Z,16000.0
2022-11-05T07:40:20.000Z,16000.0
2022-11-05T07:41:21.000Z,16000.0
2022-11-05T07:42:20.000Z,16000.0
2022-11-05T07:43:20.000Z,16000.0
2022-11-05T07:44:20.000Z,16000.0
2022-11-05T07:45:20.000Z,16000.0
2022-11-05T07:46:21.000Z,16000.0
2022-11-05T07:47:20.000Z,16000.0
2022-11-05T07:48:20.000Z,16000.0
2022-11-05T07:49:20.000Z,16000.0
2022-11-05T07:50:20.000Z,16000.0
2022-11-05T07:51:21.000Z,16000.0
2022-11-05T07:52:20.000Z,16000.0
2022-11-05T07:53:20.000Z,16000.0
2022-11-05T07:54:21.000Z,16000.0
2022-11-05T07:55:20.000Z,16000.0
2022-11-05T07:56:20.000Z,16000.0
2022-11-05T07:57:20.000Z,16000.0
2022-11-05T07:58:20.000Z,16000.0
2022-11-05T07:59:21.000Z,16000.0
2022-11-05T08:00:20.000Z,16000.0
2022-11-05T08:01:20.000Z,16000.0
2022-11-05T08:02:20.000Z,16000.0
2022-11-05T08:03:20.000Z,16000.0
2022-11-05T08:04:21.000Z,16000.0
2022-11-05T08:05:20.000Z,16000.0
2022-11-05T08:06:20.000Z,16000.0
2022-11-05T08:07:21.000Z,16000.0
2022-11-05T08:08:20.000Z,16000.0
2022-11-05T08:09:20.000Z,16000.0
2022-11-05T08:10:20.000Z,16000.0
2022-11-05T08:11:20.000Z,16000.0
2022-11-05T08:12:21.000Z,16000.0
2022-11-05T08:13:20.000Z,16000.0
2022-11-05T08:14:20.000Z,16000.0
2022-11-05T08:15:20.000Z,16000.0
2022-11-05T08:16:20.000Z,16000.0
2022-11-05T08:17:20.000Z,16000.0
2022-11-05T08:18:20.000Z,16000.0
2022-11-05T08:19:20.000Z,16000.0
2022-11-05T08:20:21.000Z,16000.0
2022-11-05T08:21:20.000Z,16000.0
2022-11-05T08:22:20.000Z,16000.0
2022-11-05T08:23:20.000Z,16000.0
2022-11-05T08:24:20.000Z,16000.0
2022-11-05T08:25:21.000Z,16000.0
2022-11-05T08:26:20.000Z,16000.0
2022-11-05T08:27:20.000Z,16000.0
2022-11-05T08:28:21.000Z,16000.0
2022-11-05T08:29:20.000Z,16000.0
2022-11-05T08:30:20.000Z,16000.0
2022-11-05T08:31:20.000Z,16000.0
2022-11-05T08:32:20.000Z,16000.0
2022-11-05T08:33:21.000Z,16000.0
2022-11-05T08:34:20.000Z,16000.0
2022-11-05T08:35:20.000Z,16000.0
2022-11-05T08:36:20.000Z,16000.0
2022-11-05T08:37:20.000Z,16000.0
2022-11-05T08:38:21.000Z,16000.0
2022-11-05T08:39:20.000Z,16000.0
2022-11-05T08:40:20.000Z,16000.0
2022-11-05T08:41:21.000Z,16000.0
2022-11-05T08:42:20.000Z,16000.0
2022-11-05T08:43:20.000Z,16000.0
2022-11-05T08:44:20.000Z,16000.0
2022-11-05T08:45:20.000Z,16000.0
2022-11-05T08:46:21.000Z,16000.0
2022-11-05T08:47:20.000Z,16000.0
2022-11-05T08:48:20.000Z,16000.0
2022-11-05T08:49:20.000Z,16000.0
2022-11-05T08:50:20.000Z,16000.0
2022-11-05T08:51:21.000Z,16000.0
2022-11-05T08:52:20.000Z,16000.0
2022-11-05T08:53:20.000Z,16000.0
2022-11-05T08:54:21.000Z,16000.0
2022-11-05T08:55:20.000Z,16000.0
2022-11-05T08:56:20.000Z,16000.0
2022-11-05T08:57:20.000Z,16000.0
2022-11-05T08:58:20.000Z,16000.0
2022-11-05T08:59:21.000Z,16000.0
2022-11-05T09:00:20.000Z,16000.0
2022-11-05T09:01:20.000Z,16000.0
2022-11-05T09:02:20.000Z,16000.0
2022-11-05T09:03:20.000Z,16000.0
2022-11-05T09:04:20.000Z,16000.0
2022-11-05T09:05:20.000Z,16000.0
2022-11-05T09:06:20.000Z,16000.0
2022-11-05T09:07:21.000Z,16000.0
2022-11-05T09:08:20.000Z,16000.0
2022-11-05T09:09:20.000Z,16000.0
2022-11-05T09:10:20.000Z,16000.0
2022-11-05T09:11:20.000Z,16000.0
2022-11-05T09:12:21.000Z,16000.0
2022-11-05T09:13:20.000Z,16000.0
2022-11-05T09:14:20.000Z,16000.0
2022-11-05T09:15:21.000Z,16000.0
2022-11-05T09:16:20.000Z,16000.0
2022-11-05T09:17:20.000Z,16000.0
2022-11-05T09:18:21.000Z,16000.0
2022-11-05T09:19:20.000Z,16000.0
2022-11-05T09:20:20.000Z,16000.0
2022-11-05T09:21:20.000Z,16000.0
2022-11-05T09:22:20.000Z,16000.0
2022-11-05T09:23:21.000Z,16000.0
2022-11-05T09:24:20.000Z,16000.0
2022-11-05T09:25:20.000Z,16000.0
2022-11-05T09:26:21.000Z,16000.0
2022-11-05T09:27:20.000Z,16000.0
2022-11-05T09:28:21.000Z,16000.0
2022-11-05T09:29:20.000Z,16000.0
2022-11-05T09:30:20.000Z,16000.0
2022-11-05T09:31:21.000Z,16000.0
2022-11-05T09:32:20.000Z,16000.0
2022-11-05T09:33:20.000Z,16000.0
2022-11-05T09:34:20.000Z,16000.0
2022-11-05T09:35:20.000Z,16000.0
2022-11-05T09:36:21.000Z,16000.0
2022-11-05T09:37:20.000Z,16000.0
2022-11-05T09:38:20.000Z,16000.0
2022-11-05T09:39:20.000Z,16000.0
2022-11-05T09:40:20.000Z,16000.0
2022-11-05T09:41:20.000Z,16000.0
2022-11-05T09:42:20.000Z,16000.0
2022-11-05T09:43:20.000Z,16000.0
2022-11-05T09:44:21.000Z,16000.0
2022-11-05T09:45:20.000Z,16000.0
2022-11-05T09:46:20.000Z,16000.0
2022-11-05T09:47:20.000Z,16000.0
2022-11-05T09:48:20.000Z,16000.0
2022-11-05T09:49:21.000Z,16000.0
2022-11-05T09:50:20.000Z,16000.0
2022-11-05T09:51:20.000Z,16000.0
2022-11-05T09:52:21.000Z,16000.0
2022-11-05T09:53:20.000Z,16000.0
2022-11-05T09:54:20.000Z,16000.0
2022-11-05T09:55:20.000Z,16000.0
2022-11-05T09:56:20.000Z,16000.0
2022-11-05T09:57:21.000Z,16000.0
2022-11-05T09:58:20.000Z,16000.0
2022-11-05T09:59:20.000Z,16000.0
2022-11-05T10:00:20.000Z,16000.0
2022-11-05T10:01:20.000Z,16000.0
2022-11-05T10:02:21.000Z,16000.0
2022-11-05T10:03:20.000Z,16000.0
2022-11-05T10:04:20.000Z,16000.0
2022-11-05T10:05:19.000Z,16000.0
2022-11-05T10:06:20.000Z,16000.0
2022-11-05T10:07:20.000Z,16000.0
2022-11-05T10:08:20.000Z,16000.0
2022-11-05T10:09:20.000Z,16000.0
2022-11-05T10:10:21.000Z,16000.0
2022-11-05T10:11:20.000Z,16000.0
2022-11-05T10:12:20.000Z,16000.0
2022-11-05T10:13:20.000Z,16000.0
2022-11-05T10:14:20.000Z,16000.0
2022-11-05T10:15:21.000Z,16000.0
2022-11-05T10:16:20.000Z,16000.0
2022-11-05T10:17:20.000Z,16000.0
2022-11-05T10:18:21.000Z,16000.0
2022-11-05T10:19:20.000Z,16000.0
2022-11-05T10:20:20.000Z,16000.0
2022-11-05T10:21:21.000Z,16000.0
2022-11-05T10:22:20.000Z,16000.0
2022-11-05T10:23:20.000Z,16000.0
2022-11-05T10:24:20.000Z,16000.0
2022-11-05T10:25:20.000Z,16000.0
2022-11-05T10:26:21.000Z,16000.0
2022-11-05T10:27:20.000Z,16000.0
2022-11-05T10:28:20.000Z,16000.0
2022-11-05T10:29:21.000Z,16000.0
2022-11-05T10:30:20.000Z,16000.0
2022-11-05T10:31:20.000Z,16000.0
2022-11-05T10:32:20.000Z,16000.0
2022-11-05T10:33:20.000Z,16000.0
2022-11-05T10:34:21.000Z,16000.0
2022-11-05T10:35:20.000Z,16000.0
2022-11-05T10:36:20.000Z,16000.0
2022-11-05T10:37:20.000Z,16000.0
2022-11-05T10:38:20.000Z,16000.0
2022-11-05T10:39:21.000Z,16000.0
2022-11-05T10:40:20.000Z,16000.0
2022-11-05T10:41:20.000Z,16000.0
2022-11-05T10:42:21.000Z,16000.0
2022-11-05T10:43:20.000Z,16000.0
2022-11-05T10:44:20.000Z,16000.0
2022-11-05T10:45:20.000Z,16000.0
2022-11-05T10:46:20.000Z,16000.0
2022-11-05T10:47:21.000Z,16000.0
2022-11-05T10:48:20.000Z,16000.0
2022-11-05T10:49:20.000Z,16000.0
2022-11-05T10:50:20.000Z,16000.0
2022-11-05T10:51:20.000Z,16000.0
2022-11-05T10:52:21.000Z,16000.0
2022-11-05T10:53:20.000Z,16000.0
2022-11-05T10:54:20.000Z,16000.0
2022-11-05T10:55:21.000Z,16000.0
2022-11-05T10:56:20.000Z,16000.0
2022-11-05T10:57:20.000Z,16000.0
2022-11-05T10:58:20.000Z,16000.0
2022-11-05T10:59:20.000Z,16000.0
2022-11-05T11:00:21.000Z,16000.0
2022-11-05T11:01:20.000Z,16000.0
2022-11-05T11:02:20.000Z,16000.0
2022-11-05T11:03:20.000Z,16000.0
2022-11-05T11:04:20.000Z,16000.0
2022-11-05T11:05:21.000Z,16000.0
2022-11-05T11:06:20.000Z,16000.0
2022-11-05T11:07:20.000Z,16000.0
2022-11-05T11:08:21.000Z,16000.0
2022-11-05T11:09:20.000Z,16000.0
2022-11-05T11:10:20.000Z,16000.0
2022-11-05T11:11:20.000Z,16000.0
2022-11-05T11:12:20.000Z,16000.0
2022-11-05T11:13:21.000Z,16000.0
2022-11-05T11:14:20.000Z,16000.0
2022-11-05T11:15:20.000Z,16000.0
2022-11-05T11:16:20.000Z,16000.0
2022-11-05T11:17:20.000Z,16000.0
2022-11-05T11:18:20.000Z,16000.0
2022-11-05T11:19:20.000Z,16000.0
2022-11-05T11:20:20.000Z,16000.0
2022-11-05T11:21:20.000Z,16000.0
2022-11-05T11:22:20.000Z,16000.0
2022-11-05T11:23:20.000Z,16000.0
2022-11-05T11:24:21.000Z,16000.0
2022-11-05T11:25:20.000Z,16000.0
2022-11-05T11:26:20.000Z,16000.0
2022-11-05T11:27:20.000Z,16000.0
2022-11-05T11:28:20.000Z,16000.0
2022-11-05T11:29:21.000Z,16000.0
2022-11-05T11:30:20.000Z,16000.0
2022-11-05T11:31:20.000Z,16000.0
2022-11-05T11:32:21.000Z,16000.0
2022-11-05T11:33:20.000Z,16000.0
2022-11-05T11:34:20.000Z,16000.0
2022-11-05T11:35:20.000Z,16000.0
2022-11-05T11:36:20.000Z,16000.0
2022-11-05T11:37:21.000Z,16000.0
2022-11-05T11:38:20.000Z,16000.0
2022-11-05T11:39:20.000Z,16000.0
2022-11-05T11:40:20.000Z,16000.0
2022-11-05T11:41:20.000Z,16000.0
2022-11-05T11:42:21.000Z,16000.0
2022-11-05T11:43:20.000Z,16000.0
2022-11-05T11:44:20.000Z,16000.0
2022-11-05T11:45:21.000Z,16000.0
2022-11-05T11:46:20.000Z,16000.0
2022-11-05T11:47:20.000Z,16000.0
2022-11-05T11:48:20.000Z,16000.0
2022-11-05T11:49:20.000Z,16000.0
2022-11-05T11:50:21.000Z,16000.0
2022-11-05T11:51:20.000Z,16000.0
2022-11-05T11:52:20.000Z,16000.0
2022-11-05T11:53:20.000Z,16000.0
2022-11-05T11:54:20.000Z,16000.0
2022-11-05T11:55:21.000Z,16000.0
2022-11-05T11:56:20.000Z,16000.0
2022-11-05T11:57:20.000Z,16000.0
2022-11-05T11:58:21.000Z,16000.0
2022-11-05T11:59:20.000Z,16000.0
2022-11-05T12:00:20.000Z,16000.0
2022-11-05T12:01:20.000Z,16000.0
2022-11-05T12:02:20.000Z,16000.0
2022-11-05T12:03:21.000Z,16000.0
2022-11-05T12:04:20.000Z,16000.0
2022-11-05T12:05:20.000Z,16000.0
2022-11-05T12:06:20.000Z,16000.0
2022-11-05T12:07:20.000Z,16000.0
2022-11-05T12:08:20.000Z,16000.0
2022-11-05T12:09:20.000Z,16000.0